createdAt,value
2022-08-27T00:02:58.161Z,4123
2022-08-27T00:08:10.681Z,4121
2022-08-27T00:13:22.896Z,4118
2022-08-27T00:18:35.231Z,4119
2022-08-27T00:23:47.513Z,4086
2022-08-27T00:28:59.854Z,4144
2022-08-27T00:34:12.926Z,4118
2022-08-27T00:39:24.413Z,4123
2022-08-27T00:44:36.578Z,4140
2022-08-27T00:49:49.041Z,4112
2022-08-27T00:55:01.242Z,4140
2022-08-27T01:00:13.497Z,4136
2022-08-27T01:05:25.766Z,4138
2022-08-27T01:10:38.037Z,4110
2022-08-27T01:15:50.339Z,4138
2022-08-27T01:21:02.564Z,4080
2022-08-27T01:26:15.086Z,4080
2022-08-27T01:31:27.376Z,4119
2022-08-27T01:36:39.851Z,4118
2022-08-27T01:41:52.471Z,4134
2022-08-27T01:47:04.587Z,4097
2022-08-27T01:52:17.027Z,4116
2022-08-27T01:57:29.261Z,4132
2022-08-27T02:02:41.465Z,4134
2022-08-27T02:07:53.903Z,4125
2022-08-27T02:13:06.237Z,4132
2022-08-27T02:18:18.550Z,4110
2022-08-27T02:23:30.771Z,4129
2022-08-27T02:28:43.106Z,4101
2022-08-27T02:33:55.427Z,4127
2022-08-27T02:39:07.605Z,4095
2022-08-27T02:44:20.061Z,4125
2022-08-27T02:49:32.400Z,4119
2022-08-27T02:54:44.714Z,4095
2022-08-27T02:59:56.936Z,4090
2022-08-27T03:05:09.282Z,4082
2022-08-27T03:10:21.554Z,4064
2022-08-27T03:15:33.998Z,4099
2022-08-27T03:20:46.216Z,4073
2022-08-27T03:25:58.646Z,4080
2022-08-27T03:31:10.969Z,4039
2022-08-27T03:36:23.129Z,4084
2022-08-27T03:41:40.104Z,4093
2022-08-27T03:46:47.776Z,4082
2022-08-27T03:52:00.046Z,4058
2022-08-27T03:57:12.262Z,4060
2022-08-27T04:02:24.729Z,4013
2022-08-27T04:07:37.028Z,4108
2022-08-27T04:12:49.454Z,4092
2022-08-27T04:18:01.658Z,4105
2022-08-27T04:23:13.899Z,4064
2022-08-27T04:28:26.330Z,4099
2022-08-27T04:33:38.770Z,4086
2022-08-27T04:38:51.206Z,4103
2022-08-27T04:44:03.816Z,4095
2022-08-27T04:49:15.922Z,4080
2022-08-27T04:54:32.146Z,4095
2022-08-27T04:59:40.888Z,4099
2022-08-27T05:04:53.335Z,4078
2022-08-27T05:10:05.627Z,4092
2022-08-27T05:15:18.060Z,4075
2022-08-27T05:20:30.387Z,3997
2022-08-27T05:25:42.903Z,4017
2022-08-27T05:30:55.986Z,4013
2022-08-27T05:36:07.448Z,4071
2022-08-27T05:41:19.760Z,4041
2022-08-27T05:46:32.113Z,4069
2022-08-27T05:51:44.421Z,4058
2022-08-27T05:56:57.140Z,4090
2022-08-27T06:02:09.708Z,4086
2022-08-27T06:07:21.697Z,4002
2022-08-27T06:12:34.118Z,4036
2022-08-27T06:17:46.524Z,3945
2022-08-27T06:22:58.853Z,4052
2022-08-27T06:28:11.345Z,3997
2022-08-27T06:33:23.423Z,4030
2022-08-27T06:38:35.745Z,4025
2022-08-27T06:43:48.240Z,3999
2022-08-27T06:49:00.807Z,4026
2022-08-27T06:54:13.211Z,4078
2022-08-27T06:59:25.674Z,3980
2022-08-27T07:04:38.372Z,4017
2022-08-27T07:09:50.572Z,4047
2022-08-27T07:15:02.748Z,4026
2022-08-27T07:20:15.251Z,4054
2022-08-27T07:25:27.663Z,3991
2022-08-27T07:30:40.178Z,4019
2022-08-27T07:35:52.473Z,4036
2022-08-27T07:41:05.013Z,3848
2022-08-27T07:46:17.652Z,4021
2022-08-27T07:51:30.126Z,3932
2022-08-27T07:56:42.533Z,4041
2022-08-27T08:01:55.037Z,3978
2022-08-27T08:07:07.173Z,4058
2022-08-27T08:12:21.129Z,4049
2022-08-27T08:17:32.028Z,3991
2022-08-27T08:22:44.671Z,4036
2022-08-27T08:27:56.891Z,4036
2022-08-27T08:33:09.216Z,4060
2022-08-27T08:38:21.542Z,4030
2022-08-27T08:43:34.061Z,4006
2022-08-27T08:48:46.305Z,3954
2022-08-27T08:53:58.735Z,4023
2022-08-27T08:59:11.158Z,3933
2022-08-27T09:04:23.629Z,4077
2022-08-27T09:09:36.112Z,4067
2022-08-27T09:14:48.503Z,4015
2022-08-27T09:20:00.748Z,3991
2022-08-27T09:25:14.424Z,4043
2022-08-27T09:30:28.698Z,4043
2022-08-27T09:35:38.101Z,4026
2022-08-27T09:40:50.589Z,3930
2022-08-27T09:46:02.989Z,4000
2022-08-27T09:51:15.366Z,4082
2022-08-27T09:56:28.009Z,4058
2022-08-27T10:01:40.623Z,4097
2022-08-27T10:06:52.976Z,4062
2022-08-27T10:12:05.612Z,4010
2022-08-27T10:17:18.044Z,4078
2022-08-27T10:22:30.349Z,4106
2022-08-27T10:27:42.776Z,4058
2022-08-27T10:32:55.417Z,4054
2022-08-27T10:38:07.540Z,4058
2022-08-27T10:43:20.463Z,4075
2022-08-27T10:48:32.994Z,4028
2022-08-27T10:53:45.603Z,4114
2022-08-27T10:58:58.015Z,4140
2022-08-27T11:04:10.685Z,4136
2022-08-27T11:09:23.203Z,4136
2022-08-27T11:14:35.642Z,4134
2022-08-27T11:19:47.893Z,4047
2022-08-27T11:25:00.379Z,4086
2022-08-27T11:30:12.703Z,4134
2022-08-27T11:35:25.039Z,4134
2022-08-27T11:40:37.304Z,4106
2022-08-27T11:45:49.584Z,4136
2022-08-27T11:51:01.861Z,4138
2022-08-27T12:01:26.853Z,4093
2022-08-27T12:06:39.788Z,4132
2022-08-27T12:11:55.971Z,4140
2022-08-27T12:17:04.547Z,4132
2022-08-27T12:22:17.260Z,4162
2022-08-27T12:27:29.794Z,4149
2022-08-27T12:32:42.345Z,4164
2022-08-27T12:37:56.908Z,4201
2022-08-27T12:43:07.355Z,4196
2022-08-27T12:48:19.693Z,4131
2022-08-27T12:53:35.848Z,4194
2022-08-27T12:58:48.452Z,4179
2022-08-27T13:04:00.839Z,4199
2022-08-27T13:09:13.479Z,4216
2022-08-27T13:14:25.787Z,4201
2022-08-27T13:24:50.840Z,4177
2022-08-27T13:30:03.261Z,4227
2022-08-27T13:35:15.411Z,4225
2022-08-27T13:40:27.815Z,4207
2022-08-27T13:45:40.156Z,4190
2022-08-27T13:50:52.345Z,4214
2022-08-27T13:56:04.753Z,4235
2022-08-27T14:01:17.172Z,4183
2022-08-27T14:06:31.476Z,4235
2022-08-27T14:11:41.910Z,4192
2022-08-27T14:16:54.232Z,4253
2022-08-27T14:22:06.828Z,4224
2022-08-27T14:27:19.387Z,4270
2022-08-27T14:32:31.751Z,4224
2022-08-27T14:37:43.834Z,4257
2022-08-27T14:42:56.118Z,4255
2022-08-27T14:48:08.370Z,4240
2022-08-27T14:53:20.567Z,4237
2022-08-27T14:58:32.925Z,4198
2022-08-27T15:03:45.581Z,4198
2022-08-27T15:08:57.848Z,4235
2022-08-27T15:14:10.168Z,4218
2022-08-27T15:19:22.598Z,4207
2022-08-27T15:24:35.128Z,4192
2022-08-27T15:34:59.462Z,4227
2022-08-27T15:40:14.670Z,4227
2022-08-27T15:50:38.683Z,4222
2022-08-27T15:55:51.231Z,4201
2022-08-27T16:01:03.294Z,4203
2022-08-27T16:06:19.305Z,4222
2022-08-27T16:11:27.881Z,4207
2022-08-27T16:16:40.190Z,4229
2022-08-27T16:21:52.628Z,4214
2022-08-27T16:27:05.072Z,4229
2022-08-27T16:32:18.760Z,4225
2022-08-27T16:37:29.796Z,4227
2022-08-27T16:42:42.024Z,4201
2022-08-27T16:47:54.452Z,4224
2022-08-27T16:53:06.733Z,4225
2022-08-27T16:58:19.206Z,4211
2022-08-27T17:03:31.577Z,4225
2022-08-27T17:08:47.879Z,4194
2022-08-27T17:13:56.379Z,4224
2022-08-27T17:19:08.699Z,4188
2022-08-27T17:24:21.141Z,4207
2022-08-27T17:29:33.370Z,4216
2022-08-27T17:34:45.753Z,4183
2022-08-27T17:39:58.133Z,4196
2022-08-27T17:45:10.671Z,4205
2022-08-27T17:50:23.053Z,4207
2022-08-27T17:55:35.420Z,4218
2022-08-27T18:00:47.718Z,4186
2022-08-27T18:06:00.200Z,4127
2022-08-27T18:11:12.486Z,4183
2022-08-27T18:16:24.859Z,4160
2022-08-27T18:21:37.177Z,4157
2022-08-27T18:26:49.614Z,4149
2022-08-27T18:32:01.884Z,4114
2022-08-27T18:37:14.158Z,4196
2022-08-27T18:42:26.316Z,4145
2022-08-27T18:47:39.030Z,4166
2022-08-27T18:52:51.313Z,4212
2022-08-27T18:58:03.656Z,4192
2022-08-27T19:03:16.198Z,4201
2022-08-27T19:08:28.407Z,4153
2022-08-27T19:13:41.156Z,4190
2022-08-27T19:18:53.687Z,4118
2022-08-27T19:24:06.035Z,4177
2022-08-27T19:29:18.438Z,4171
2022-08-27T19:34:30.681Z,4190
2022-08-27T19:39:43.190Z,4173
2022-08-27T19:44:55.404Z,4166
2022-08-27T19:50:07.612Z,4185
2022-08-27T19:55:19.947Z,4185
2022-08-27T20:00:32.411Z,4186
2022-08-27T20:05:44.893Z,4166
2022-08-27T20:10:57.108Z,4142
2022-08-27T20:16:13.453Z,4190
2022-08-27T20:21:22.165Z,4201
2022-08-27T20:26:34.675Z,4132
2022-08-27T20:31:46.953Z,4194
2022-08-27T20:36:59.318Z,4166
2022-08-27T20:42:11.461Z,4160
2022-08-27T20:47:23.874Z,4198
2022-08-27T20:52:36.091Z,4149
2022-08-27T20:57:48.744Z,4121
2022-08-27T21:03:01.047Z,4112
2022-08-27T21:08:13.899Z,4125
2022-08-27T21:13:25.931Z,4112
2022-08-27T21:18:38.335Z,4185
2022-08-27T21:23:50.653Z,4173
2022-08-27T21:29:03.260Z,4194
2022-08-27T21:34:15.613Z,4196
2022-08-27T21:39:28.026Z,4173
2022-08-27T21:44:40.265Z,4155
2022-08-27T21:49:53.006Z,4153
2022-08-27T21:55:05.266Z,4129
2022-08-27T22:00:17.849Z,4127
2022-08-27T22:05:30.161Z,4158
2022-08-27T22:10:42.605Z,4171
2022-08-27T22:15:55.069Z,4108
2022-08-27T22:21:07.309Z,4138
2022-08-27T22:26:19.767Z,4151
2022-08-27T22:31:32.223Z,4186
2022-08-27T22:36:44.521Z,4090
2022-08-27T22:41:56.762Z,4131
2022-08-27T22:47:09.069Z,4168
2022-08-27T22:52:23.183Z,4188
2022-08-27T22:57:33.700Z,4166
2022-08-27T23:02:46.028Z,4162
2022-08-27T23:07:58.983Z,4131
2022-08-27T23:13:11.177Z,4164
2022-08-27T23:18:23.630Z,4171
2022-08-27T23:23:36.032Z,4162
2022-08-27T23:28:48.562Z,4183
2022-08-27T23:34:00.849Z,4123
2022-08-27T23:39:13.310Z,4028
2022-08-27T23:44:26.002Z,4127
2022-08-27T23:49:38.269Z,4065
2022-08-27T23:54:50.691Z,4097
